sensor_id;sensor_type;location;lat;lon;timestamp;P1;durP1;ratioP1;P2;durP2;ratioP2
76236;SDS011;65038;53.200;6.530;2023-07-20T00:00:23;4.45;;;2.90;;
76236;SDS011;65038;53.200;6.530;2023-07-20T00:02:52;5.38;;;2.90;;
76236;SDS011;65038;53.200;6.530;2023-07-20T00:05:18;6.47;;;3.10;;
76236;SDS011;65038;53.200;6.530;2023-07-20T00:07:46;4.30;;;2.80;;
76236;SDS011;65038;53.200;6.530;2023-07-20T00:10:12;4.45;;;3.00;;
76236;SDS011;65038;53.200;6.530;2023-07-20T00:12:38;6.15;;;2.80;;
76236;SDS011;65038;53.200;6.530;2023-07-20T00:15:05;4.60;;;2.70;;
76236;SDS011;65038;53.200;6.530;2023-07-20T00:17:31;4.78;;;2.30;;
76236;SDS011;65038;53.200;6.530;2023-07-20T00:19:57;5.38;;;2.58;;
76236;SDS011;65038;53.200;6.530;2023-07-20T00:22:23;4.40;;;2.50;;
76236;SDS011;65038;53.200;6.530;2023-07-20T00:24:49;6.80;;;2.60;;
76236;SDS011;65038;53.200;6.530;2023-07-20T00:27:15;4.68;;;2.42;;
76236;SDS011;65038;53.200;6.530;2023-07-20T00:29:41;4.30;;;2.40;;
76236;SDS011;65038;53.200;6.530;2023-07-20T00:32:07;5.63;;;2.60;;
76236;SDS011;65038;53.200;6.530;2023-07-20T00:34:33;3.95;;;2.60;;
76236;SDS011;65038;53.200;6.530;2023-07-20T00:36:59;4.25;;;2.60;;
76236;SDS011;65038;53.200;6.530;2023-07-20T00:39:25;5.10;;;2.88;;
76236;SDS011;65038;53.200;6.530;2023-07-20T00:41:51;5.10;;;2.80;;
76236;SDS011;65038;53.200;6.530;2023-07-20T00:44:17;6.88;;;3.08;;
76236;SDS011;65038;53.200;6.530;2023-07-20T00:46:43;5.38;;;3.00;;
76236;SDS011;65038;53.200;6.530;2023-07-20T00:49:11;5.80;;;3.00;;
76236;SDS011;65038;53.200;6.530;2023-07-20T00:51:37;5.03;;;3.03;;
76236;SDS011;65038;53.200;6.530;2023-07-20T00:54:04;5.97;;;3.00;;
76236;SDS011;65038;53.200;6.530;2023-07-20T00:56:30;4.70;;;2.80;;
76236;SDS011;65038;53.200;6.530;2023-07-20T00:58:56;6.53;;;3.22;;
76236;SDS011;65038;53.200;6.530;2023-07-20T01:01:22;4.93;;;2.90;;
76236;SDS011;65038;53.200;6.530;2023-07-20T01:03:48;4.38;;;3.00;;
76236;SDS011;65038;53.200;6.530;2023-07-20T01:11:23;5.43;;;3.50;;
76236;SDS011;65038;53.200;6.530;2023-07-20T01:13:51;4.88;;;3.13;;
76236;SDS011;65038;53.200;6.530;2023-07-20T01:16:17;5.20;;;3.17;;
76236;SDS011;65038;53.200;6.530;2023-07-20T01:18:43;5.45;;;3.30;;
76236;SDS011;65038;53.200;6.530;2023-07-20T01:21:09;4.90;;;3.20;;
76236;SDS011;65038;53.200;6.530;2023-07-20T01:23:53;6.13;;;3.55;;
76236;SDS011;65038;53.200;6.530;2023-07-20T01:26:27;5.78;;;3.20;;
76236;SDS011;65038;53.200;6.530;2023-07-20T01:31:41;5.32;;;3.55;;
76236;SDS011;65038;53.200;6.530;2023-07-20T01:34:07;5.20;;;3.25;;
76236;SDS011;65038;53.200;6.530;2023-07-20T01:36:35;5.78;;;3.63;;
76236;SDS011;65038;53.200;6.530;2023-07-20T01:39:01;5.55;;;3.50;;
76236;SDS011;65038;53.200;6.530;2023-07-20T01:41:29;5.45;;;3.47;;
76236;SDS011;65038;53.200;6.530;2023-07-20T01:43:58;7.57;;;3.60;;
76236;SDS011;65038;53.200;6.530;2023-07-20T01:46:24;12.52;;;3.95;;
76236;SDS011;65038;53.200;6.530;2023-07-20T01:48:50;6.35;;;3.75;;
76236;SDS011;65038;53.200;6.530;2023-07-20T01:51:16;6.90;;;4.00;;
76236;SDS011;65038;53.200;6.530;2023-07-20T01:53:45;7.20;;;4.03;;
76236;SDS011;65038;53.200;6.530;2023-07-20T01:56:11;5.72;;;3.90;;
76236;SDS011;65038;53.200;6.530;2023-07-20T01:58:38;5.53;;;3.72;;
76236;SDS011;65038;53.200;6.530;2023-07-20T02:01:04;5.57;;;3.40;;
76236;SDS011;65038;53.200;6.530;2023-07-20T02:03:30;5.13;;;3.30;;
76236;SDS011;65038;53.200;6.530;2023-07-20T02:05:57;6.03;;;3.17;;
76236;SDS011;65038;53.200;6.530;2023-07-20T02:08:23;5.65;;;3.50;;
76236;SDS011;65038;53.200;6.530;2023-07-20T02:10:50;5.38;;;3.30;;
76236;SDS011;65038;53.200;6.530;2023-07-20T02:13:16;6.95;;;3.75;;
76236;SDS011;65038;53.200;6.530;2023-07-20T02:15:42;7.05;;;3.50;;
76236;SDS011;65038;53.200;6.530;2023-07-20T02:18:09;5.63;;;3.35;;
76236;SDS011;65038;53.200;6.530;2023-07-20T02:20:35;6.88;;;3.58;;
76236;SDS011;65038;53.200;6.530;2023-07-20T02:23:01;4.65;;;3.47;;
76236;SDS011;65038;53.200;6.530;2023-07-20T02:25:27;8.40;;;3.72;;
76236;SDS011;65038;53.200;6.530;2023-07-20T02:27:53;6.60;;;3.47;;
76236;SDS011;65038;53.200;6.530;2023-07-20T02:30:19;6.05;;;3.40;;
76236;SDS011;65038;53.200;6.530;2023-07-20T02:32:45;6.57;;;3.83;;
76236;SDS011;65038;53.200;6.530;2023-07-20T02:35:13;6.35;;;3.60;;
76236;SDS011;65038;53.200;6.530;2023-07-20T02:37:39;7.30;;;3.53;;
76236;SDS011;65038;53.200;6.530;2023-07-20T02:40:05;6.32;;;3.78;;
76236;SDS011;65038;53.200;6.530;2023-07-20T02:42:32;5.05;;;3.38;;
76236;SDS011;65038;53.200;6.530;2023-07-20T02:44:58;5.93;;;3.75;;
76236;SDS011;65038;53.200;6.530;2023-07-20T02:47:24;7.05;;;3.80;;
76236;SDS011;65038;53.200;6.530;2023-07-20T02:49:50;5.68;;;3.40;;
76236;SDS011;65038;53.200;6.530;2023-07-20T02:52:16;6.47;;;3.72;;
76236;SDS011;65038;53.200;6.530;2023-07-20T02:54:42;7.40;;;3.78;;
76236;SDS011;65038;53.200;6.530;2023-07-20T02:57:08;5.45;;;3.60;;
76236;SDS011;65038;53.200;6.530;2023-07-20T02:59:34;4.90;;;3.47;;
76236;SDS011;65038;53.200;6.530;2023-07-20T03:02:00;6.43;;;3.60;;
76236;SDS011;65038;53.200;6.530;2023-07-20T03:04:26;4.93;;;3.38;;
76236;SDS011;65038;53.200;6.530;2023-07-20T03:06:52;4.75;;;3.42;;
76236;SDS011;65038;53.200;6.530;2023-07-20T03:09:19;6.13;;;3.60;;
76236;SDS011;65038;53.200;6.530;2023-07-20T03:11:45;6.85;;;3.60;;
76236;SDS011;65038;53.200;6.530;2023-07-20T03:14:10;4.97;;;3.28;;
76236;SDS011;65038;53.200;6.530;2023-07-20T03:16:37;5.10;;;3.60;;
76236;SDS011;65038;53.200;6.530;2023-07-20T03:19:04;6.85;;;3.22;;
76236;SDS011;65038;53.200;6.530;2023-07-20T03:21:30;4.45;;;3.13;;
76236;SDS011;65038;53.200;6.530;2023-07-20T03:23:56;4.93;;;3.25;;
76236;SDS011;65038;53.200;6.530;2023-07-20T03:26:22;6.82;;;3.15;;
76236;SDS011;65038;53.200;6.530;2023-07-20T03:28:48;6.28;;;3.10;;
76236;SDS011;65038;53.200;6.530;2023-07-20T03:31:14;6.45;;;3.30;;
76236;SDS011;65038;53.200;6.530;2023-07-20T03:33:40;5.13;;;3.17;;
76236;SDS011;65038;53.200;6.530;2023-07-20T03:36:07;5.35;;;3.30;;
76236;SDS011;65038;53.200;6.530;2023-07-20T03:38:35;6.30;;;3.33;;
76236;SDS011;65038;53.200;6.530;2023-07-20T03:41:01;5.18;;;3.10;;
76236;SDS011;65038;53.200;6.530;2023-07-20T03:43:27;5.80;;;3.00;;
76236;SDS011;65038;53.200;6.530;2023-07-20T03:45:53;7.38;;;3.38;;
76236;SDS011;65038;53.200;6.530;2023-07-20T03:48:21;6.25;;;3.70;;
76236;SDS011;65038;53.200;6.530;2023-07-20T03:50:47;5.10;;;3.33;;
76236;SDS011;65038;53.200;6.530;2023-07-20T03:53:13;5.10;;;3.20;;
76236;SDS011;65038;53.200;6.530;2023-07-20T03:55:40;5.53;;;3.25;;
76236;SDS011;65038;53.200;6.530;2023-07-20T03:58:07;6.13;;;3.58;;
76236;SDS011;65038;53.200;6.530;2023-07-20T04:00:33;5.53;;;3.20;;
76236;SDS011;65038;53.200;6.530;2023-07-20T04:02:59;7.32;;;3.05;;
76236;SDS011;65038;53.200;6.530;2023-07-20T04:05:25;5.85;;;2.95;;
76236;SDS011;65038;53.200;6.530;2023-07-20T04:07:52;5.10;;;3.10;;
76236;SDS011;65038;53.200;6.530;2023-07-20T04:10:18;4.78;;;3.22;;
76236;SDS011;65038;53.200;6.530;2023-07-20T04:12:44;4.38;;;3.10;;
76236;SDS011;65038;53.200;6.530;2023-07-20T04:15:12;5.13;;;3.17;;
76236;SDS011;65038;53.200;6.530;2023-07-20T04:17:38;6.00;;;3.40;;
76236;SDS011;65038;53.200;6.530;2023-07-20T04:20:04;6.93;;;3.45;;
76236;SDS011;65038;53.200;6.530;2023-07-20T04:22:30;7.40;;;3.13;;
76236;SDS011;65038;53.200;6.530;2023-07-20T04:24:57;5.65;;;3.17;;
76236;SDS011;65038;53.200;6.530;2023-07-20T04:27:23;5.90;;;3.03;;
76236;SDS011;65038;53.200;6.530;2023-07-20T04:29:49;5.53;;;3.17;;
76236;SDS011;65038;53.200;6.530;2023-07-20T04:32:14;5.00;;;3.00;;
76236;SDS011;65038;53.200;6.530;2023-07-20T04:34:42;4.38;;;2.72;;
76236;SDS011;65038;53.200;6.530;2023-07-20T04:37:08;6.07;;;3.10;;
76236;SDS011;65038;53.200;6.530;2023-07-20T04:39:34;5.00;;;2.92;;
76236;SDS011;65038;53.200;6.530;2023-07-20T04:42:00;5.38;;;2.85;;
76236;SDS011;65038;53.200;6.530;2023-07-20T04:44:26;4.75;;;2.88;;
76236;SDS011;65038;53.200;6.530;2023-07-20T04:46:52;5.47;;;3.15;;
76236;SDS011;65038;53.200;6.530;2023-07-20T04:49:18;6.30;;;3.00;;
76236;SDS011;65038;53.200;6.530;2023-07-20T04:51:45;6.28;;;3.03;;
76236;SDS011;65038;53.200;6.530;2023-07-20T04:54:11;7.03;;;3.08;;
76236;SDS011;65038;53.200;6.530;2023-07-20T04:56:37;5.53;;;2.83;;
76236;SDS011;65038;53.200;6.530;2023-07-20T04:59:03;4.47;;;2.63;;
76236;SDS011;65038;53.200;6.530;2023-07-20T05:01:29;4.72;;;2.60;;
76236;SDS011;65038;53.200;6.530;2023-07-20T05:03:55;6.30;;;3.10;;
76236;SDS011;65038;53.200;6.530;2023-07-20T05:06:21;6.80;;;3.10;;
76236;SDS011;65038;53.200;6.530;2023-07-20T05:08:47;4.82;;;2.95;;
76236;SDS011;65038;53.200;6.530;2023-07-20T05:11:12;6.05;;;2.75;;
76236;SDS011;65038;53.200;6.530;2023-07-20T05:13:39;6.15;;;2.92;;
76236;SDS011;65038;53.200;6.530;2023-07-20T05:16:04;5.18;;;3.00;;
76236;SDS011;65038;53.200;6.530;2023-07-20T05:18:30;6.65;;;3.20;;
76236;SDS011;65038;53.200;6.530;2023-07-20T05:20:57;4.13;;;2.67;;
76236;SDS011;65038;53.200;6.530;2023-07-20T05:23:23;6.18;;;2.75;;
76236;SDS011;65038;53.200;6.530;2023-07-20T05:25:57;4.03;;;2.42;;
76236;SDS011;65038;53.200;6.530;2023-07-20T05:28:23;6.70;;;2.58;;
76236;SDS011;65038;53.200;6.530;2023-07-20T05:30:52;6.15;;;2.60;;
76236;SDS011;65038;53.200;6.530;2023-07-20T05:33:19;5.82;;;2.15;;
76236;SDS011;65038;53.200;6.530;2023-07-20T05:35:45;4.25;;;2.38;;
76236;SDS011;65038;53.200;6.530;2023-07-20T05:38:11;5.63;;;2.30;;
76236;SDS011;65038;53.200;6.530;2023-07-20T05:40:38;4.93;;;2.10;;
76236;SDS011;65038;53.200;6.530;2023-07-20T05:43:04;4.03;;;1.95;;
76236;SDS011;65038;53.200;6.530;2023-07-20T05:45:30;5.78;;;2.25;;
76236;SDS011;65038;53.200;6.530;2023-07-20T05:47:56;8.30;;;2.30;;
76236;SDS011;65038;53.200;6.530;2023-07-20T05:50:22;6.10;;;2.20;;
76236;SDS011;65038;53.200;6.530;2023-07-20T05:52:48;4.75;;;2.17;;
76236;SDS011;65038;53.200;6.530;2023-07-20T05:55:14;3.97;;;2.05;;
76236;SDS011;65038;53.200;6.530;2023-07-20T05:57:40;4.70;;;2.08;;
76236;SDS011;65038;53.200;6.530;2023-07-20T06:00:07;6.15;;;1.90;;
76236;SDS011;65038;53.200;6.530;2023-07-20T06:02:34;4.47;;;1.83;;
76236;SDS011;65038;53.200;6.530;2023-07-20T06:05:00;6.00;;;2.08;;
76236;SDS011;65038;53.200;6.530;2023-07-20T06:07:26;4.70;;;2.20;;
76236;SDS011;65038;53.200;6.530;2023-07-20T06:09:52;5.22;;;1.73;;
76236;SDS011;65038;53.200;6.530;2023-07-20T06:12:18;5.32;;;1.70;;
76236;SDS011;65038;53.200;6.530;2023-07-20T06:14:44;4.65;;;2.10;;
76236;SDS011;65038;53.200;6.530;2023-07-20T06:17:11;6.43;;;1.63;;
76236;SDS011;65038;53.200;6.530;2023-07-20T06:19:37;4.45;;;2.03;;
76236;SDS011;65038;53.200;6.530;2023-07-20T06:22:03;5.43;;;1.83;;
76236;SDS011;65038;53.200;6.530;2023-07-20T06:24:29;4.95;;;1.60;;
76236;SDS011;65038;53.200;6.530;2023-07-20T06:26:55;5.47;;;1.77;;
76236;SDS011;65038;53.200;6.530;2023-07-20T06:29:21;6.25;;;1.88;;
76236;SDS011;65038;53.200;6.530;2023-07-20T06:31:47;4.30;;;1.70;;
76236;SDS011;65038;53.200;6.530;2023-07-20T06:34:13;5.53;;;1.70;;
76236;SDS011;65038;53.200;6.530;2023-07-20T06:36:39;7.18;;;1.67;;
76236;SDS011;65038;53.200;6.530;2023-07-20T06:39:05;4.25;;;1.60;;
76236;SDS011;65038;53.200;6.530;2023-07-20T06:41:31;4.50;;;1.50;;
76236;SDS011;65038;53.200;6.530;2023-07-20T06:43:57;5.05;;;1.60;;
76236;SDS011;65038;53.200;6.530;2023-07-20T06:46:27;3.92;;;1.50;;
76236;SDS011;65038;53.200;6.530;2023-07-20T06:48:53;5.53;;;1.40;;
76236;SDS011;65038;53.200;6.530;2023-07-20T06:51:19;4.82;;;1.40;;
76236;SDS011;65038;53.200;6.530;2023-07-20T06:53:45;5.45;;;1.48;;
76236;SDS011;65038;53.200;6.530;2023-07-20T06:56:11;3.67;;;1.40;;
76236;SDS011;65038;53.200;6.530;2023-07-20T06:58:38;3.38;;;1.30;;
76236;SDS011;65038;53.200;6.530;2023-07-20T07:01:04;4.07;;;1.30;;
76236;SDS011;65038;53.200;6.530;2023-07-20T07:03:31;3.92;;;1.50;;
76236;SDS011;65038;53.200;6.530;2023-07-20T07:05:58;5.22;;;1.50;;
76236;SDS011;65038;53.200;6.530;2023-07-20T07:08:24;4.75;;;1.60;;
76236;SDS011;65038;53.200;6.530;2023-07-20T07:10:50;6.07;;;1.60;;
76236;SDS011;65038;53.200;6.530;2023-07-20T07:13:16;5.68;;;1.85;;
76236;SDS011;65038;53.200;6.530;2023-07-20T07:15:42;3.95;;;1.60;;
76236;SDS011;65038;53.200;6.530;2023-07-20T07:18:08;5.22;;;1.90;;
76236;SDS011;65038;53.200;6.530;2023-07-20T07:20:34;4.63;;;1.90;;
76236;SDS011;65038;53.200;6.530;2023-07-20T07:23:00;6.32;;;1.98;;
76236;SDS011;65038;53.200;6.530;2023-07-20T07:25:26;6.18;;;1.90;;
76236;SDS011;65038;53.200;6.530;2023-07-20T07:27:52;7.57;;;1.90;;
76236;SDS011;65038;53.200;6.530;2023-07-20T07:30:19;5.68;;;1.70;;
76236;SDS011;65038;53.200;6.530;2023-07-20T07:32:45;5.07;;;1.70;;
76236;SDS011;65038;53.200;6.530;2023-07-20T07:35:11;7.95;;;1.90;;
76236;SDS011;65038;53.200;6.530;2023-07-20T07:37:37;7.18;;;2.15;;
76236;SDS011;65038;53.200;6.530;2023-07-20T07:40:04;6.20;;;2.08;;
76236;SDS011;65038;53.200;6.530;2023-07-20T07:42:31;5.70;;;1.75;;
76236;SDS011;65038;53.200;6.530;2023-07-20T07:44:57;5.50;;;2.00;;
76236;SDS011;65038;53.200;6.530;2023-07-20T07:47:23;5.75;;;1.85;;
76236;SDS011;65038;53.200;6.530;2023-07-20T07:49:49;5.97;;;1.70;;
76236;SDS011;65038;53.200;6.530;2023-07-20T07:52:15;6.15;;;1.80;;
76236;SDS011;65038;53.200;6.530;2023-07-20T07:54:41;4.85;;;1.52;;
76236;SDS011;65038;53.200;6.530;2023-07-20T07:57:07;8.07;;;1.60;;
76236;SDS011;65038;53.200;6.530;2023-07-20T07:59:33;8.38;;;1.70;;
76236;SDS011;65038;53.200;6.530;2023-07-20T08:02:04;4.88;;;1.50;;
76236;SDS011;65038;53.200;6.530;2023-07-20T08:04:30;6.25;;;1.75;;
76236;SDS011;65038;53.200;6.530;2023-07-20T08:06:56;6.15;;;1.75;;
76236;SDS011;65038;53.200;6.530;2023-07-20T08:09:22;6.78;;;1.70;;
76236;SDS011;65038;53.200;6.530;2023-07-20T08:11:48;7.28;;;1.70;;
76236;SDS011;65038;53.200;6.530;2023-07-20T08:14:15;8.25;;;1.50;;
76236;SDS011;65038;53.200;6.530;2023-07-20T08:16:41;6.03;;;1.40;;
76236;SDS011;65038;53.200;6.530;2023-07-20T08:19:07;6.72;;;1.40;;
76236;SDS011;65038;53.200;6.530;2023-07-20T08:21:33;4.40;;;1.50;;
76236;SDS011;65038;53.200;6.530;2023-07-20T08:24:00;9.30;;;1.60;;
76236;SDS011;65038;53.200;6.530;2023-07-20T08:26:26;3.78;;;1.17;;
76236;SDS011;65038;53.200;6.530;2023-07-20T08:28:52;3.03;;;1.20;;
76236;SDS011;65038;53.200;6.530;2023-07-20T08:31:18;5.35;;;1.10;;
76236;SDS011;65038;53.200;6.530;2023-07-20T08:33:45;4.80;;;1.30;;
76236;SDS011;65038;53.200;6.530;2023-07-20T08:36:11;3.80;;;1.10;;
76236;SDS011;65038;53.200;6.530;2023-07-20T08:38:37;3.13;;;1.00;;
76236;SDS011;65038;53.200;6.530;2023-07-20T08:41:03;3.35;;;1.20;;
76236;SDS011;65038;53.200;6.530;2023-07-20T08:43:29;3.45;;;0.98;;
76236;SDS011;65038;53.200;6.530;2023-07-20T08:45:56;4.18;;;1.33;;
76236;SDS011;65038;53.200;6.530;2023-07-20T08:48:22;3.63;;;1.00;;
76236;SDS011;65038;53.200;6.530;2023-07-20T08:50:51;5.47;;;1.20;;
76236;SDS011;65038;53.200;6.530;2023-07-20T08:53:20;4.80;;;0.90;;
76236;SDS011;65038;53.200;6.530;2023-07-20T08:55:46;3.28;;;1.17;;
76236;SDS011;65038;53.200;6.530;2023-07-20T08:58:14;4.93;;;1.20;;
76236;SDS011;65038;53.200;6.530;2023-07-20T09:00:41;2.53;;;1.00;;
76236;SDS011;65038;53.200;6.530;2023-07-20T09:03:07;4.47;;;1.00;;
76236;SDS011;65038;53.200;6.530;2023-07-20T09:05:34;5.30;;;0.88;;
76236;SDS011;65038;53.200;6.530;2023-07-20T09:08:01;3.55;;;1.00;;
76236;SDS011;65038;53.200;6.530;2023-07-20T09:10:30;2.63;;;0.90;;
76236;SDS011;65038;53.200;6.530;2023-07-20T09:12:56;3.75;;;1.20;;
76236;SDS011;65038;53.200;6.530;2023-07-20T09:15:22;3.85;;;1.10;;
76236;SDS011;65038;53.200;6.530;2023-07-20T09:17:49;4.93;;;1.20;;
76236;SDS011;65038;53.200;6.530;2023-07-20T09:20:16;2.60;;;0.90;;
76236;SDS011;65038;53.200;6.530;2023-07-20T09:22:42;2.97;;;1.05;;
76236;SDS011;65038;53.200;6.530;2023-07-20T09:25:12;4.32;;;1.00;;
76236;SDS011;65038;53.200;6.530;2023-07-20T09:27:47;5.82;;;1.00;;
76236;SDS011;65038;53.200;6.530;2023-07-20T09:30:14;4.30;;;1.05;;
76236;SDS011;65038;53.200;6.530;2023-07-20T09:32:41;1.98;;;0.70;;
76236;SDS011;65038;53.200;6.530;2023-07-20T09:35:15;2.47;;;0.85;;
76236;SDS011;65038;53.200;6.530;2023-07-20T09:37:53;3.70;;;0.90;;
76236;SDS011;65038;53.200;6.530;2023-07-20T09:40:20;4.22;;;1.00;;
76236;SDS011;65038;53.200;6.530;2023-07-20T09:42:46;5.25;;;1.00;;
76236;SDS011;65038;53.200;6.530;2023-07-20T09:45:13;3.50;;;1.02;;
76236;SDS011;65038;53.200;6.530;2023-07-20T09:47:39;5.60;;;1.30;;
76236;SDS011;65038;53.200;6.530;2023-07-20T09:50:06;2.85;;;0.90;;
76236;SDS011;65038;53.200;6.530;2023-07-20T09:52:37;3.03;;;1.00;;
76236;SDS011;65038;53.200;6.530;2023-07-20T09:55:04;4.10;;;1.40;;
76236;SDS011;65038;53.200;6.530;2023-07-20T09:57:31;3.25;;;1.00;;
76236;SDS011;65038;53.200;6.530;2023-07-20T09:59:58;3.72;;;0.98;;
76236;SDS011;65038;53.200;6.530;2023-07-20T10:02:30;3.15;;;0.95;;
76236;SDS011;65038;53.200;6.530;2023-07-20T10:04:58;2.88;;;0.90;;
76236;SDS011;65038;53.200;6.530;2023-07-20T10:07:25;2.78;;;1.00;;
76236;SDS011;65038;53.200;6.530;2023-07-20T10:09:53;3.90;;;1.00;;
76236;SDS011;65038;53.200;6.530;2023-07-20T10:12:22;5.20;;;1.20;;
76236;SDS011;65038;53.200;6.530;2023-07-20T10:14:59;2.65;;;1.00;;
76236;SDS011;65038;53.200;6.530;2023-07-20T10:17:26;4.22;;;1.20;;
76236;SDS011;65038;53.200;6.530;2023-07-20T10:19:54;4.15;;;0.98;;
76236;SDS011;65038;53.200;6.530;2023-07-20T10:22:26;2.55;;;0.90;;
76236;SDS011;65038;53.200;6.530;2023-07-20T10:24:53;3.78;;;0.90;;
76236;SDS011;65038;53.200;6.530;2023-07-20T10:27:22;4.38;;;1.00;;
76236;SDS011;65038;53.200;6.530;2023-07-20T10:29:48;3.35;;;1.10;;
76236;SDS011;65038;53.200;6.530;2023-07-20T10:32:16;4.63;;;1.10;;
76236;SDS011;65038;53.200;6.530;2023-07-20T10:34:42;5.72;;;0.98;;
76236;SDS011;65038;53.200;6.530;2023-07-20T10:37:08;3.90;;;1.00;;
76236;SDS011;65038;53.200;6.530;2023-07-20T10:39:34;4.90;;;1.77;;
76236;SDS011;65038;53.200;6.530;2023-07-20T10:42:01;2.67;;;0.90;;
76236;SDS011;65038;53.200;6.530;2023-07-20T10:44:28;2.60;;;0.80;;
76236;SDS011;65038;53.200;6.530;2023-07-20T10:47:01;4.43;;;1.10;;
76236;SDS011;65038;53.200;6.530;2023-07-20T10:49:27;3.22;;;1.00;;
76236;SDS011;65038;53.200;6.530;2023-07-20T10:51:58;2.55;;;1.10;;
76236;SDS011;65038;53.200;6.530;2023-07-20T10:56:50;5.18;;;0.93;;
76236;SDS011;65038;53.200;6.530;2023-07-20T10:59:19;3.30;;;1.00;;
76236;SDS011;65038;53.200;6.530;2023-07-20T11:01:46;2.33;;;0.90;;
76236;SDS011;65038;53.200;6.530;2023-07-20T11:04:14;5.10;;;1.15;;
76236;SDS011;65038;53.200;6.530;2023-07-20T11:06:43;2.60;;;1.08;;
76236;SDS011;65038;53.200;6.530;2023-07-20T11:09:13;9.40;;;1.35;;
76236;SDS011;65038;53.200;6.530;2023-07-20T11:11:42;3.15;;;1.08;;
76236;SDS011;65038;53.200;6.530;2023-07-20T11:16:39;4.07;;;1.00;;
76236;SDS011;65038;53.200;6.530;2023-07-20T11:19:13;4.55;;;1.00;;
76236;SDS011;65038;53.200;6.530;2023-07-20T11:21:43;2.92;;;1.00;;
76236;SDS011;65038;53.200;6.530;2023-07-20T11:24:09;2.83;;;0.90;;
76236;SDS011;65038;53.200;6.530;2023-07-20T11:26:44;3.28;;;0.90;;
76236;SDS011;65038;53.200;6.530;2023-07-20T11:29:10;2.63;;;0.88;;
76236;SDS011;65038;53.200;6.530;2023-07-20T11:31:37;3.55;;;1.08;;
76236;SDS011;65038;53.200;6.530;2023-07-20T11:34:03;3.58;;;1.17;;
76236;SDS011;65038;53.200;6.530;2023-07-20T11:36:29;5.63;;;1.30;;
76236;SDS011;65038;53.200;6.530;2023-07-20T11:38:55;2.60;;;0.90;;
76236;SDS011;65038;53.200;6.530;2023-07-20T11:41:21;2.88;;;1.00;;
76236;SDS011;65038;53.200;6.530;2023-07-20T11:43:47;3.83;;;1.05;;
76236;SDS011;65038;53.200;6.530;2023-07-20T11:46:14;3.47;;;0.90;;
76236;SDS011;65038;53.200;6.530;2023-07-20T11:48:41;3.75;;;1.00;;
76236;SDS011;65038;53.200;6.530;2023-07-20T11:51:12;5.10;;;1.20;;
76236;SDS011;65038;53.200;6.530;2023-07-20T11:53:39;4.40;;;1.10;;
76236;SDS011;65038;53.200;6.530;2023-07-20T11:56:05;16.33;;;2.60;;
76236;SDS011;65038;53.200;6.530;2023-07-20T11:58:31;5.35;;;1.23;;
76236;SDS011;65038;53.200;6.530;2023-07-20T12:00:57;3.63;;;1.30;;
76236;SDS011;65038;53.200;6.530;2023-07-20T12:03:23;2.33;;;0.90;;
76236;SDS011;65038;53.200;6.530;2023-07-20T12:05:49;2.83;;;1.00;;
76236;SDS011;65038;53.200;6.530;2023-07-20T12:08:15;4.78;;;1.10;;
76236;SDS011;65038;53.200;6.530;2023-07-20T12:10:42;3.08;;;1.05;;
76236;SDS011;65038;53.200;6.530;2023-07-20T12:13:09;3.05;;;1.10;;
76236;SDS011;65038;53.200;6.530;2023-07-20T12:15:37;3.60;;;1.00;;
76236;SDS011;65038;53.200;6.530;2023-07-20T12:18:03;4.57;;;1.20;;
76236;SDS011;65038;53.200;6.530;2023-07-20T12:23:13;3.47;;;1.05;;
76236;SDS011;65038;53.200;6.530;2023-07-20T12:25:42;2.95;;;0.95;;
76236;SDS011;65038;53.200;6.530;2023-07-20T12:28:12;3.17;;;0.95;;
76236;SDS011;65038;53.200;6.530;2023-07-20T12:30:39;2.22;;;0.93;;
76236;SDS011;65038;53.200;6.530;2023-07-20T12:33:05;4.78;;;1.10;;
76236;SDS011;65038;53.200;6.530;2023-07-20T12:35:31;3.67;;;0.90;;
76236;SDS011;65038;53.200;6.530;2023-07-20T12:37:58;4.35;;;1.10;;
76236;SDS011;65038;53.200;6.530;2023-07-20T12:40:25;3.63;;;1.10;;
76236;SDS011;65038;53.200;6.530;2023-07-20T12:42:51;4.35;;;1.30;;
76236;SDS011;65038;53.200;6.530;2023-07-20T12:45:17;4.63;;;1.20;;
76236;SDS011;65038;53.200;6.530;2023-07-20T12:47:43;6.03;;;1.38;;
76236;SDS011;65038;53.200;6.530;2023-07-20T12:50:10;3.65;;;1.30;;
76236;SDS011;65038;53.200;6.530;2023-07-20T12:52:36;5.10;;;1.42;;
76236;SDS011;65038;53.200;6.530;2023-07-20T12:55:03;5.32;;;1.30;;
76236;SDS011;65038;53.200;6.530;2023-07-20T12:57:29;4.78;;;1.67;;
76236;SDS011;65038;53.200;6.530;2023-07-20T12:59:55;2.67;;;1.40;;
76236;SDS011;65038;53.200;6.530;2023-07-20T13:02:21;4.43;;;1.40;;
76236;SDS011;65038;53.200;6.530;2023-07-20T13:04:47;3.60;;;1.30;;
76236;SDS011;65038;53.200;6.530;2023-07-20T13:07:13;2.97;;;1.20;;
76236;SDS011;65038;53.200;6.530;2023-07-20T13:09:39;3.53;;;1.30;;
76236;SDS011;65038;53.200;6.530;2023-07-20T13:12:06;3.45;;;1.30;;
76236;SDS011;65038;53.200;6.530;2023-07-20T13:14:32;2.50;;;1.00;;
76236;SDS011;65038;53.200;6.530;2023-07-20T13:16:58;2.75;;;0.90;;
76236;SDS011;65038;53.200;6.530;2023-07-20T13:19:24;3.33;;;1.20;;
76236;SDS011;65038;53.200;6.530;2023-07-20T13:21:50;2.88;;;1.00;;
76236;SDS011;65038;53.200;6.530;2023-07-20T13:24:16;4.05;;;1.27;;
76236;SDS011;65038;53.200;6.530;2023-07-20T13:26:42;4.00;;;1.10;;
76236;SDS011;65038;53.200;6.530;2023-07-20T13:29:08;2.92;;;1.20;;
76236;SDS011;65038;53.200;6.530;2023-07-20T13:31:34;4.32;;;1.15;;
76236;SDS011;65038;53.200;6.530;2023-07-20T13:34:00;5.93;;;1.30;;
76236;SDS011;65038;53.200;6.530;2023-07-20T13:36:26;2.40;;;1.17;;
76236;SDS011;65038;53.200;6.530;2023-07-20T13:38:52;4.18;;;1.30;;
76236;SDS011;65038;53.200;6.530;2023-07-20T13:41:18;3.95;;;1.00;;
76236;SDS011;65038;53.200;6.530;2023-07-20T13:43:44;5.28;;;1.48;;
76236;SDS011;65038;53.200;6.530;2023-07-20T13:46:11;3.97;;;1.40;;
76236;SDS011;65038;53.200;6.530;2023-07-20T13:48:37;3.65;;;1.02;;
76236;SDS011;65038;53.200;6.530;2023-07-20T13:51:03;7.47;;;1.38;;
76236;SDS011;65038;53.200;6.530;2023-07-20T13:53:29;5.60;;;1.40;;
76236;SDS011;65038;53.200;6.530;2023-07-20T13:55:55;5.10;;;1.40;;
76236;SDS011;65038;53.200;6.530;2023-07-20T13:58:22;4.65;;;1.70;;
76236;SDS011;65038;53.200;6.530;2023-07-20T14:00:48;3.10;;;1.20;;
76236;SDS011;65038;53.200;6.530;2023-07-20T14:03:14;2.95;;;1.10;;
76236;SDS011;65038;53.200;6.530;2023-07-20T14:05:40;3.95;;;0.90;;
76236;SDS011;65038;53.200;6.530;2023-07-20T14:08:06;3.35;;;0.90;;
76236;SDS011;65038;53.200;6.530;2023-07-20T14:10:32;3.40;;;1.00;;
76236;SDS011;65038;53.200;6.530;2023-07-20T14:12:58;2.95;;;0.90;;
76236;SDS011;65038;53.200;6.530;2023-07-20T14:15:24;2.47;;;0.90;;
76236;SDS011;65038;53.200;6.530;2023-07-20T14:17:50;2.10;;;0.90;;
76236;SDS011;65038;53.200;6.530;2023-07-20T14:20:16;3.67;;;1.00;;
76236;SDS011;65038;53.200;6.530;2023-07-20T14:22:42;3.70;;;1.00;;
76236;SDS011;65038;53.200;6.530;2023-07-20T14:25:09;4.32;;;1.27;;
76236;SDS011;65038;53.200;6.530;2023-07-20T14:27:35;5.47;;;1.02;;
76236;SDS011;65038;53.200;6.530;2023-07-20T14:30:01;2.75;;;0.90;;
76236;SDS011;65038;53.200;6.530;2023-07-20T14:32:27;5.90;;;1.20;;
76236;SDS011;65038;53.200;6.530;2023-07-20T14:34:53;2.75;;;1.00;;
76236;SDS011;65038;53.200;6.530;2023-07-20T14:37:19;3.88;;;1.10;;
76236;SDS011;65038;53.200;6.530;2023-07-20T14:39:46;2.10;;;0.80;;
76236;SDS011;65038;53.200;6.530;2023-07-20T14:42:13;3.08;;;1.02;;
76236;SDS011;65038;53.200;6.530;2023-07-20T14:44:39;3.45;;;1.10;;
76236;SDS011;65038;53.200;6.530;2023-07-20T14:47:05;4.32;;;1.20;;
76236;SDS011;65038;53.200;6.530;2023-07-20T14:49:31;4.30;;;1.00;;
76236;SDS011;65038;53.200;6.530;2023-07-20T14:51:57;2.90;;;1.40;;
76236;SDS011;65038;53.200;6.530;2023-07-20T14:54:23;3.88;;;1.33;;
76236;SDS011;65038;53.200;6.530;2023-07-20T14:56:50;4.43;;;1.45;;
76236;SDS011;65038;53.200;6.530;2023-07-20T14:59:17;2.85;;;1.20;;